• Join FlightAware (Why Join?)
  • Login
  • US Flag 
12:31PM EDT


 

Airport Tracker/Info


-or-


 

Live Flight TrackerFlight Track Log ✈ N693PD ✈ 12-May-2013 ✈ KDZB - KRYY

Flight Track Log - Related Links

Times and Time Zones

All times are in EDT time to prevent confusion due to time zone crossing. See the N693PD flight status page for this flight to view local times or setup timezone preferences in your user account.

Time Position Orientation Groundspeed Altitude Reporting Facility
EDT Latitude Longitude Course Direction KTS MPH feet Rate Location/Type
09:33PM 30.5533 -98.2608 72° East 133 153 5,600  Level Houston Center
09:34PM 30.5672 -98.2169 70° East 141 162 7,300 1,500 Climbing Houston Center
09:35PM 30.5783 -98.1731 74° East 140 161 8,700 1,320 Climbing Houston Center
09:36PM 30.5933 -98.1228 71° East 156 180 10,100 1,320 Climbing Houston Center
09:37PM 30.6078 -98.0706 72° East 167 192 11,400 1,260 Climbing Houston Center
09:38PM 30.6225 -98.0144 73° East 177 204 12,700 1,260 Climbing Houston Center
09:39PM 30.6665 -97.8119 72° East  Level FlightAware Approximate
09:39PM 30.6389 -97.9564 72° East 184 212 14,000  Level Houston Center
09:40PM 30.6553 -97.8981 72° East 187 215 15,200 1,080 Climbing Houston Center
09:41PM 30.6719 -97.8378 72° East 194 223 16,300 1,080 Climbing Houston Center
09:42PM 30.6883 -97.7764 73° East 197 227 17,400 900 Climbing Houston Center
09:43PM 30.7058 -97.7139 72° East 203 234 18,200 780 Climbing Houston Center
09:44PM 30.7242 -97.6478 72° East 211 243 19,000 840 Climbing Houston Center
09:46PM 30.7419 -97.5806 73° East 215 247 20,000 840 Climbing Houston Center
09:47PM 30.7597 -97.5139 73° East 215 247 20,800 780 Climbing Houston Center
09:48PM 30.7786 -97.4461 72° East 218 251 21,600 780 Climbing Houston Center
09:49PM 30.8003 -97.3647 73° East 223 257 22,400 660 Climbing Houston Center
09:50PM 30.8200 -97.2922 72° East 234 269 23,000 540 Climbing Houston Center
09:51PM 30.8403 -97.2181 72° East 241 277 23,500 480 Climbing Houston Center
09:52PM 30.8614 -97.1422 72° East 247 284 24,000 480 Climbing Houston Center
09:53PM 30.8831 -97.0633 72° East 254 292 24,500 480 Climbing Houston Center
09:54PM 30.9047 -96.9839 72° East 256 295 25,000 540 Climbing Houston Center
09:55PM 30.9253 -96.9058 73° East 251 289 25,700 540 Climbing Houston Center
09:56PM 30.9478 -96.8236 72° East 262 302 26,100 420 Climbing Houston Center
09:57PM 30.9689 -96.7397 74° East 267 307 26,600 420 Climbing Houston Center
09:58PM 30.9919 -96.6550 72° East 273 314 27,000 180 Climbing Houston Center
09:59PM 31.0153 -96.5669 73° East 284 327 27,000  Level Houston Center
10:00PM 31.0397 -96.4725 73° East 299 344 27,000  Level Houston Center
10:01PM 31.0661 -96.3758 72° East 308 354 27,000  Level Houston Center
10:02PM 31.0958 -96.2631 73° East 310 357 27,000  Level Houston Center
10:03PM 31.1211 -96.1647 73° East 315 362 27,000  Level Houston Center
10:04PM 31.1453 -96.0683 74° East 310 357 27,000  Level Houston Center
10:05PM 31.1725 -95.9675 72° East 311 358 27,000  Level Houston Center
10:06PM 31.1969 -95.8708 74° East 311 358 27,000  Level Houston Center
10:07PM 31.2225 -95.7725 73° East 315 362 27,000  Level Houston Center
10:07PM 31.2356 -95.7247 72° East 310 357 27,000  Level Fort Worth Center
10:08PM 31.2592 -95.6247 75° East 310 357 27,000  Level Fort Worth Center
10:09PM 31.2725 -95.5794 71° East 309 356 27,000  Level Houston Center
10:10PM 31.2978 -95.4808 73° East 314 361 27,000  Level Houston Center
10:11PM 31.3222 -95.3833 74° East 313 360 27,000  Level Houston Center
10:11PM 31.3381 -95.3267 72° East 304 350 27,000  Level Fort Worth Center
10:12PM 31.3594 -95.2311 75° East 304 350 27,000  Level Fort Worth Center
10:13PM 31.3847 -95.1356 73° East 299 344 27,000  Level Fort Worth Center
10:14PM 31.4103 -95.0353 73° East 304 350 27,000  Level Fort Worth Center
10:15PM 31.4336 -94.9469 73° East 304 350 27,000  Level Fort Worth Center
10:16PM 31.4586 -94.8489 73° East 304 350 27,000  Level Fort Worth Center
10:17PM 31.4706 -94.7894 77° East 317 365 27,000  Level Houston Center
10:18PM 31.4950 -94.6903 74° East 313 360 27,000  Level Houston Center
10:19PM 31.5192 -94.5917 74° East 312 359 27,000  Level Houston Center
10:19PM 31.5294 -94.5522 73° East 304 350 27,000  Level Fort Worth Center
10:20PM 31.5544 -94.4539 73° East 304 350 27,000  Level Fort Worth Center
10:21PM 31.5792 -94.3531 74° East 304 350 27,000  Level Fort Worth Center
10:22PM 31.6019 -94.2572 74° East 304 350 27,000  Level Fort Worth Center
10:23PM 31.6244 -94.1589 75° East 304 350 27,000  Level Fort Worth Center
10:24PM 31.6469 -94.0628 75° East 304 350 27,000  Level Fort Worth Center
10:25PM 31.6694 -93.9669 75° East 304 350 27,000  Level Fort Worth Center
10:26PM 31.6939 -93.8683 74° East 304 350 27,000  Level Fort Worth Center
10:27PM 31.7181 -93.7697 74° East 304 350 27,000  Level Fort Worth Center
10:30PM 31.7647 -93.5756 74° East 310 357 27,000  Level Houston Center
10:31PM 31.7875 -93.4767 75° East 312 359 27,000  Level Houston Center
10:32PM 31.8158 -93.3589 74° East 311 358 27,000  Level Houston Center
10:33PM 31.8392 -93.2603 74° East 312 359 27,000  Level Houston Center
10:34PM 31.8617 -93.1617 75° East 311 358 27,000  Level Houston Center
10:35PM 31.8856 -93.0625 74° East 313 360 27,000  Level Houston Center
10:36PM 31.9061 -92.9728 75° East 310 357 27,000  Level Houston Center
10:37PM 31.9286 -92.8731 75° East 314 361 27,000  Level Houston Center
10:38PM 31.9517 -92.7733 75° East 315 362 27,000  Level Houston Center
10:38PM 31.9611 -92.7347 74° East 313 360 27,000  Level Houston Center
10:39PM 31.9867 -92.6353 73° East 316 364 27,000  Level Houston Center
10:40PM 32.0233 -92.5214 69° East 311 358 27,000  Level Houston Center
10:41PM 32.0544 -92.4250 69° East 313 360 27,000  Level Houston Center
10:42PM 32.0853 -92.3292 69° East 313 360 27,000  Level Houston Center
10:43PM 32.1161 -92.2336 69° East 312 359 27,000  Level Houston Center
10:44PM 32.1475 -92.1386 69° East 312 359 27,000  Level Houston Center
10:45PM 32.1778 -92.0425 70° East 313 360 27,000  Level Houston Center
10:46PM 32.2092 -91.9350 71° East 311 358 27,000  Level Houston Center
10:47PM 32.2406 -91.8378 69° East 317 365 27,000  Level Houston Center
10:48PM 32.2708 -91.7419 69° East 313 360 27,000  Level Houston Center
10:49PM 32.3008 -91.6453 70° East 313 360 27,000  Level Houston Center
10:50PM 32.3308 -91.5478 70° East 314 361 27,000  Level Houston Center
10:51PM 32.3606 -91.4503 70° East 316 364 27,000  Level Houston Center
10:52PM 32.3861 -91.3783 67° East 308 354 27,000  Level Memphis Center
10:53PM 32.4117 -91.2800 73° East 308 354 27,000  Level Memphis Center
10:54PM 32.4417 -91.1819 70° East 308 354 27,000  Level Memphis Center
10:55PM 32.4736 -91.0814 69° East 308 354 27,000  Level Memphis Center
10:56PM 32.5033 -90.9856 70° East 308 354 27,000  Level Memphis Center
10:57PM 32.5353 -90.8747 71° East 313 360 27,000  Level Memphis Center
10:58PM 32.5669 -90.7789 69° East 313 360 27,000  Level Memphis Center
10:59PM 32.5983 -90.6803 69° East 313 360 27,000  Level Memphis Center
11:00PM 32.6278 -90.5817 70° East 308 354 27,000  Level Memphis Center
11:01PM 32.6553 -90.4831 72° East 308 354 27,000  Level Memphis Center
11:02PM 32.6867 -90.3819 70° East 308 354 27,000  Level Memphis Center
11:03PM 32.7158 -90.2831 71° East 308 354 27,000  Level Memphis Center
11:04PM 32.7450 -90.1844 71° East 308 354 27,000  Level Memphis Center
11:05PM 32.7739 -90.0856 71° East 308 354 27,000  Level Memphis Center
11:06PM 32.8028 -89.9842 71° East 308 354 27,000  Level Memphis Center
11:07PM 32.8339 -89.8850 70° East 308 354 27,000  Level Memphis Center
11:08PM 32.8628 -89.7908 70° East 315 362 27,000  Level Memphis Center
11:09PM 32.8914 -89.6869 72° East 320 368 27,000  Level Memphis Center
11:10PM 32.9222 -89.5875 70° East 320 368 27,000  Level Memphis Center
11:11PM 32.9528 -89.4858 70° East 320 368 27,000  Level Memphis Center
11:12PM 32.9811 -89.3839 72° East 325 374 27,000  Level Memphis Center
11:13PM 33.0117 -89.2819 70° East 325 374 27,000  Level Memphis Center
11:14PM 33.0400 -89.1825 71° East 325 374 27,000  Level Memphis Center
11:15PM 33.0703 -89.0781 71° East 325 374 27,000  Level Memphis Center
11:16PM 33.0983 -88.9783 71° East 325 374 27,000  Level Memphis Center
11:17PM 33.1286 -88.8764 70° East 325 374 27,000  Level Memphis Center
11:18PM 33.1567 -88.7742 72° East 325 374 27,000  Level Memphis Center
11:19PM 33.1906 -88.6592 71° East 325 374 27,000  Level Memphis Center
11:20PM 33.2161 -88.5569 73° East 325 374 27,000  Level Memphis Center
11:21PM 33.2503 -88.4544 68° East 325 374 27,000  Level Memphis Center
11:22PM 33.2778 -88.3494 73° East 325 374 27,000  Level Memphis Center
11:23PM 33.3031 -88.2469 74° East 325 374 27,000  Level Memphis Center
11:25PM 33.3550 -88.0578 72° East 333 383 27,000  Level Atlanta Center
11:26PM 33.3753 -87.9492 77° East 333 383 27,000  Level Atlanta Center
11:27PM 33.3975 -87.8431 76° East 333 383 27,000  Level Atlanta Center
11:28PM 33.4194 -87.7372 76° East 328 377 27,000  Level Atlanta Center
11:29PM 33.4392 -87.6308 77° East 328 377 27,000  Level Atlanta Center
11:30PM 33.4611 -87.5222 76° East 334 384 27,000  Level Atlanta Center
11:31PM 33.4828 -87.4161 76° East 334 384 27,000  Level Atlanta Center
11:32PM 33.5044 -87.3097 76° East 334 384 27,000  Level Atlanta Center
11:33PM 33.5261 -87.2011 77° East 334 384 27,000 -300 Level Atlanta Center
11:34PM 33.5478 -87.0922 77° East 334 384 26,400 -900 Descending Atlanta Center
11:35PM 33.5694 -86.9733 78° East 339 390 25,300 -1,200 Descending Atlanta Center
11:36PM 33.5908 -86.8642 77° East 344 396 24,100 -1,200 Descending Atlanta Center
11:37PM 33.6142 -86.7528 76° East 344 396 23,000 -1,200 Descending Atlanta Center
11:38PM 33.6353 -86.6436 77° East 339 390 21,800 -1,200 Descending Atlanta Center
11:39PM 33.6542 -86.5369 78° East 332 382 20,700 -1,200 Descending Atlanta Center
11:40PM 33.6750 -86.4278 77° East 332 382 19,500 -1,200 Descending Atlanta Center
11:41PM 33.6981 -86.3208 75° East 332 382 18,400 -1,080 Descending Atlanta Center
11:42PM 33.7164 -86.2214 77° East 327 376 17,400 -1,080 Descending Atlanta Center
11:43PM 33.7369 -86.1172 77° East 320 368 16,300 -1,200 Descending Atlanta Center
11:44PM 33.7575 -86.0203 76° East 313 360 15,100 -1,200 Descending Atlanta Center
11:45PM 33.7736 -85.9231 79° East 302 348 14,000 -1,140 Descending Atlanta Center
11:47PM 33.8075 -85.7464 77° East 284 327 11,800 -1,140 Descending Atlanta Center
11:48PM 33.8233 -85.6567 78° East 278 320 10,600 -1,200 Descending Atlanta Center
11:49PM 33.8411 -85.5644 77° East 278 320 9,500 -1,200 Descending Atlanta Center
11:50PM 33.8589 -85.4772 76° East 278 320 8,300 -780 Descending Atlanta Center
11:51PM 33.8725 -85.3900 79° East 278 320 8,000 -180 Descending Atlanta Center
11:52PM 33.8900 -85.2950 77° East 272 313 8,000  Level Atlanta Center
11:53PM 33.9056 -85.2078 78° East 272 313 8,000  Level Atlanta Center
11:54PM 33.9211 -85.1203 78° East 266 306 8,000 -420 Level Atlanta Center
11:55PM 33.9383 -85.0328 77° East 266 306 7,200 -1,140 Descending Atlanta Center
11:56PM 33.9578 -84.9556 73° East 248 285 5,800 -720 Descending Atlanta Center
11:57PM 33.9731 -84.8806 76° East 248 285 5,800  Level Atlanta Center
12:03AM 33.9831 -84.7180 79° East  Level FlightAware Approximate
12:10AM 34.0132 -84.5971 90° East  Level Estimated
12:11AM 34.0132 -84.5971 90° East  Level Estimated
12:12AM 34.0132 -84.5971 90° East  Level Estimated
12:13AM 34.0132 -84.5971 90° East  Level Estimated
12:14AM 34.0132 -84.5971 90° East  Level Estimated
12:15AM 34.0132 -84.5971 90° East  Level Estimated
12:16AM 34.0132 -84.5971 90° East  Level Estimated
12:17AM 34.0132 -84.5971 90° East  Level Estimated